sensor_id;sensor_type;location;lat;lon;timestamp;pressure;altitude;pressure_sealevel;temperature;humidity
13974;BME280;7060;43.770;4.008;2023-05-16T00:00:57;100508.22;;;15.86;43.23
13974;BME280;7060;43.770;4.008;2023-05-16T00:03:26;100501.34;;;15.84;43.42
13974;BME280;7060;43.770;4.008;2023-05-16T00:05:57;100510.81;;;15.80;43.38
13974;BME280;7060;43.770;4.008;2023-05-16T00:08:25;100503.38;;;15.82;43.57
13974;BME280;7060;43.770;4.008;2023-05-16T00:10:53;100506.53;;;15.85;43.30
13974;BME280;7060;43.770;4.008;2023-05-16T00:13:22;100500.88;;;15.80;43.41
13974;BME280;7060;43.770;4.008;2023-05-16T00:15:52;100487.75;;;15.77;43.41
13974;BME280;7060;43.770;4.008;2023-05-16T00:18:21;100495.00;;;15.77;43.71
13974;BME280;7060;43.770;4.008;2023-05-16T00:20:53;100494.34;;;15.75;43.66
13974;BME280;7060;43.770;4.008;2023-05-16T00:23:22;100489.34;;;15.72;43.64
13974;BME280;7060;43.770;4.008;2023-05-16T00:25:50;100490.16;;;15.72;43.74
13974;BME280;7060;43.770;4.008;2023-05-16T00:28:18;100500.47;;;15.69;44.34
13974;BME280;7060;43.770;4.008;2023-05-16T00:30:47;100491.94;;;15.65;44.20
13974;BME280;7060;43.770;4.008;2023-05-16T00:33:15;100492.78;;;15.66;44.43
13974;BME280;7060;43.770;4.008;2023-05-16T00:35:44;100487.25;;;15.59;44.43
13974;BME280;7060;43.770;4.008;2023-05-16T00:38:14;100500.25;;;15.55;44.50
13974;BME280;7060;43.770;4.008;2023-05-16T00:40:43;100482.97;;;15.50;44.65
13974;BME280;7060;43.770;4.008;2023-05-16T00:43:12;100478.59;;;15.49;44.55
13974;BME280;7060;43.770;4.008;2023-05-16T00:45:41;100475.91;;;15.49;44.55
13974;BME280;7060;43.770;4.008;2023-05-16T00:48:11;100472.19;;;15.50;44.58
13974;BME280;7060;43.770;4.008;2023-05-16T00:50:40;100465.78;;;15.51;44.72
13974;BME280;7060;43.770;4.008;2023-05-16T00:53:10;100454.34;;;15.34;45.13
13974;BME280;7060;43.770;4.008;2023-05-16T00:55:40;100462.97;;;15.44;44.91
13974;BME280;7060;43.770;4.008;2023-05-16T00:58:10;100455.91;;;15.43;44.62
13974;BME280;7060;43.770;4.008;2023-05-16T01:00:41;100449.88;;;15.41;44.84
13974;BME280;7060;43.770;4.008;2023-05-16T01:03:12;100450.72;;;15.42;45.37
13974;BME280;7060;43.770;4.008;2023-05-16T01:05:40;100441.78;;;15.41;45.61
13974;BME280;7060;43.770;4.008;2023-05-16T01:08:11;100444.22;;;15.36;45.43
13974;BME280;7060;43.770;4.008;2023-05-16T01:10:48;100432.25;;;15.39;45.02
13974;BME280;7060;43.770;4.008;2023-05-16T01:13:23;100432.25;;;15.39;44.85
13974;BME280;7060;43.770;4.008;2023-05-16T01:15:59;100432.06;;;15.40;45.11
13974;BME280;7060;43.770;4.008;2023-05-16T01:18:38;100410.97;;;15.29;45.00
13974;BME280;7060;43.770;4.008;2023-05-16T01:21:15;100431.66;;;15.43;44.87
13974;BME280;7060;43.770;4.008;2023-05-16T01:23:51;100400.84;;;15.31;44.87
13974;BME280;7060;43.770;4.008;2023-05-16T01:26:22;100424.59;;;15.42;44.76
13974;BME280;7060;43.770;4.008;2023-05-16T01:28:53;100423.41;;;15.45;44.64
13974;BME280;7060;43.770;4.008;2023-05-16T01:31:22;100421.56;;;15.45;44.92
13974;BME280;7060;43.770;4.008;2023-05-16T01:33:51;100418.19;;;15.43;44.88
13974;BME280;7060;43.770;4.008;2023-05-16T01:36:23;100426.28;;;15.43;44.66
13974;BME280;7060;43.770;4.008;2023-05-16T01:39:05;100418.38;;;15.42;44.57
13974;BME280;7060;43.770;4.008;2023-05-16T01:41:45;100411.13;;;15.42;44.80
13974;BME280;7060;43.770;4.008;2023-05-16T01:44:21;100406.78;;;15.41;45.03
13974;BME280;7060;43.770;4.008;2023-05-16T01:46:54;100409.41;;;15.35;44.99
13974;BME280;7060;43.770;4.008;2023-05-16T01:49:29;100413.94;;;15.34;44.86
13974;BME280;7060;43.770;4.008;2023-05-16T01:52:09;100382.81;;;15.17;44.91
13974;BME280;7060;43.770;4.008;2023-05-16T01:54:43;100415.63;;;15.35;44.72
13974;BME280;7060;43.770;4.008;2023-05-16T01:57:15;100412.44;;;15.32;45.45
13974;BME280;7060;43.770;4.008;2023-05-16T01:59:44;100419.69;;;15.31;45.14
13974;BME280;7060;43.770;4.008;2023-05-16T02:02:17;100415.16;;;15.32;44.84
13974;BME280;7060;43.770;4.008;2023-05-16T02:04:46;100418.03;;;15.30;44.78
13974;BME280;7060;43.770;4.008;2023-05-16T02:07:14;100427.13;;;15.29;45.14
13974;BME280;7060;43.770;4.008;2023-05-16T02:09:44;100422.47;;;15.23;45.38
13974;BME280;7060;43.770;4.008;2023-05-16T02:12:14;100425.53;;;15.20;45.13
13974;BME280;7060;43.770;4.008;2023-05-16T02:14:43;100424.22;;;15.16;45.38
13974;BME280;7060;43.770;4.008;2023-05-16T02:17:11;100421.91;;;15.13;45.15
13974;BME280;7060;43.770;4.008;2023-05-16T02:19:41;100417.53;;;15.12;45.14
13974;BME280;7060;43.770;4.008;2023-05-16T02:22:10;100419.22;;;15.13;44.93
13974;BME280;7060;43.770;4.008;2023-05-16T02:24:39;100411.97;;;15.13;45.49
13974;BME280;7060;43.770;4.008;2023-05-16T02:27:07;100416.88;;;15.10;45.20
13974;BME280;7060;43.770;4.008;2023-05-16T02:29:37;100412.69;;;15.07;44.82
13974;BME280;7060;43.770;4.008;2023-05-16T02:32:06;100414.06;;;15.03;45.04
13974;BME280;7060;43.770;4.008;2023-05-16T02:34:35;100415.28;;;15.01;44.78
13974;BME280;7060;43.770;4.008;2023-05-16T02:37:04;100421.69;;;15.00;44.94
13974;BME280;7060;43.770;4.008;2023-05-16T02:39:33;100427.44;;;14.97;45.61
13974;BME280;7060;43.770;4.008;2023-05-16T02:42:02;100426.09;;;14.93;45.17
13974;BME280;7060;43.770;4.008;2023-05-16T02:44:32;100428.13;;;14.90;45.99
13974;BME280;7060;43.770;4.008;2023-05-16T02:47:02;100422.66;;;14.84;44.96
13974;BME280;7060;43.770;4.008;2023-05-16T02:49:30;100429.59;;;14.78;45.49
13974;BME280;7060;43.770;4.008;2023-05-16T02:51:59;100427.44;;;14.74;46.05
13974;BME280;7060;43.770;4.008;2023-05-16T02:54:27;100422.59;;;14.69;46.00
13974;BME280;7060;43.770;4.008;2023-05-16T02:56:56;100425.28;;;14.69;46.21
13974;BME280;7060;43.770;4.008;2023-05-16T02:59:24;100416.91;;;14.64;46.16
13974;BME280;7060;43.770;4.008;2023-05-16T03:01:53;100414.75;;;14.60;45.93
13974;BME280;7060;43.770;4.008;2023-05-16T03:04:23;100417.66;;;14.58;46.16
13974;BME280;7060;43.770;4.008;2023-05-16T03:06:53;100415.16;;;14.56;45.79
13974;BME280;7060;43.770;4.008;2023-05-16T03:09:21;100417.97;;;14.55;46.08
13974;BME280;7060;43.770;4.008;2023-05-16T03:11:50;100409.25;;;14.53;45.39
13974;BME280;7060;43.770;4.008;2023-05-16T03:14:19;100406.91;;;14.50;45.83
13974;BME280;7060;43.770;4.008;2023-05-16T03:16:47;100407.44;;;14.45;45.30
13974;BME280;7060;43.770;4.008;2023-05-16T03:19:18;100412.16;;;14.43;45.08
13974;BME280;7060;43.770;4.008;2023-05-16T03:21:48;100398.59;;;14.37;45.27
13974;BME280;7060;43.770;4.008;2023-05-16T03:24:16;100404.81;;;14.37;45.63
13974;BME280;7060;43.770;4.008;2023-05-16T03:26:45;100399.44;;;14.37;45.09
13974;BME280;7060;43.770;4.008;2023-05-16T03:29:13;100396.75;;;14.37;45.05
13974;BME280;7060;43.770;4.008;2023-05-16T03:31:42;100394.88;;;14.38;44.67
13974;BME280;7060;43.770;4.008;2023-05-16T03:34:11;100390.53;;;14.37;44.32
13974;BME280;7060;43.770;4.008;2023-05-16T03:36:40;100397.56;;;14.38;44.21
13974;BME280;7060;43.770;4.008;2023-05-16T03:39:10;100396.09;;;14.35;44.51
13974;BME280;7060;43.770;4.008;2023-05-16T03:41:39;100399.34;;;14.31;44.84
13974;BME280;7060;43.770;4.008;2023-05-16T03:44:07;100397.00;;;14.28;44.80
13974;BME280;7060;43.770;4.008;2023-05-16T03:46:36;100396.50;;;14.24;44.69
13974;BME280;7060;43.770;4.008;2023-05-16T03:49:05;100392.97;;;14.23;43.89
13974;BME280;7060;43.770;4.008;2023-05-16T03:51:33;100390.47;;;14.22;44.72
13974;BME280;7060;43.770;4.008;2023-05-16T03:54:01;100385.63;;;14.17;44.81
13974;BME280;7060;43.770;4.008;2023-05-16T03:56:31;100379.94;;;14.12;44.62
13974;BME280;7060;43.770;4.008;2023-05-16T03:59:00;100381.59;;;14.13;44.08
13974;BME280;7060;43.770;4.008;2023-05-16T04:01:30;100382.63;;;14.12;44.37
13974;BME280;7060;43.770;4.008;2023-05-16T04:04:01;100380.09;;;14.11;43.93
13974;BME280;7060;43.770;4.008;2023-05-16T04:06:29;100382.78;;;14.11;44.57
13974;BME280;7060;43.770;4.008;2023-05-16T04:08:58;100380.63;;;14.06;44.58
13974;BME280;7060;43.770;4.008;2023-05-16T04:11:27;100379.63;;;14.07;44.55
13974;BME280;7060;43.770;4.008;2023-05-16T04:13:56;100385.66;;;14.09;44.68
13974;BME280;7060;43.770;4.008;2023-05-16T04:16:25;100375.09;;;14.08;44.23
13974;BME280;7060;43.770;4.008;2023-05-16T04:18:54;100389.84;;;14.12;44.44
13974;BME280;7060;43.770;4.008;2023-05-16T04:21:23;100391.53;;;14.13;44.25
13974;BME280;7060;43.770;4.008;2023-05-16T04:23:51;100385.31;;;14.12;44.57
13974;BME280;7060;43.770;4.008;2023-05-16T04:26:20;100395.72;;;14.15;44.43
13974;BME280;7060;43.770;4.008;2023-05-16T04:28:49;100385.97;;;14.14;45.00
13974;BME280;7060;43.770;4.008;2023-05-16T04:31:19;100388.66;;;14.14;44.78
13974;BME280;7060;43.770;4.008;2023-05-16T04:33:48;100391.88;;;14.10;44.80
13974;BME280;7060;43.770;4.008;2023-05-16T04:36:16;100389.38;;;14.08;44.58
13974;BME280;7060;43.770;4.008;2023-05-16T04:38:45;100391.53;;;14.13;45.04
13974;BME280;7060;43.770;4.008;2023-05-16T04:41:13;100392.38;;;14.13;45.20
13974;BME280;7060;43.770;4.008;2023-05-16T04:43:43;100397.03;;;14.19;45.14
13974;BME280;7060;43.770;4.008;2023-05-16T04:46:12;100389.28;;;14.24;45.14
13974;BME280;7060;43.770;4.008;2023-05-16T04:48:42;100397.66;;;14.30;45.04
13974;BME280;7060;43.770;4.008;2023-05-16T04:51:11;100395.63;;;14.32;45.31
13974;BME280;7060;43.770;4.008;2023-05-16T04:53:39;100395.06;;;14.36;45.64
13974;BME280;7060;43.770;4.008;2023-05-16T04:56:08;100395.91;;;14.37;45.35
13974;BME280;7060;43.770;4.008;2023-05-16T04:58:36;100394.88;;;14.38;45.80
13974;BME280;7060;43.770;4.008;2023-05-16T05:01:07;100393.69;;;14.40;45.93
13974;BME280;7060;43.770;4.008;2023-05-16T05:03:35;100396.22;;;14.42;45.68
13974;BME280;7060;43.770;4.008;2023-05-16T05:06:06;100394.66;;;14.47;45.44
13974;BME280;7060;43.770;4.008;2023-05-16T05:08:35;100394.97;;;14.52;45.51
13974;BME280;7060;43.770;4.008;2023-05-16T05:11:03;100401.53;;;14.58;45.93
13974;BME280;7060;43.770;4.008;2023-05-16T05:13:32;100398.44;;;14.61;46.28
13974;BME280;7060;43.770;4.008;2023-05-16T05:16:00;100399.09;;;14.63;46.33
13974;BME280;7060;43.770;4.008;2023-05-16T05:18:30;100396.22;;;14.65;45.91
13974;BME280;7060;43.770;4.008;2023-05-16T05:20:59;100398.38;;;14.69;45.48
13974;BME280;7060;43.770;4.008;2023-05-16T05:23:29;100395.16;;;14.74;45.04
13974;BME280;7060;43.770;4.008;2023-05-16T05:25:58;100404.00;;;14.82;45.34
13974;BME280;7060;43.770;4.008;2023-05-16T05:28:29;100395.84;;;14.90;44.85
13974;BME280;7060;43.770;4.008;2023-05-16T05:30:57;100408.88;;;15.02;44.42
13974;BME280;7060;43.770;4.008;2023-05-16T05:33:26;100411.41;;;15.18;44.06
13974;BME280;7060;43.770;4.008;2023-05-16T05:35:55;100400.13;;;15.37;43.95
13974;BME280;7060;43.770;4.008;2023-05-16T05:38:24;100359.78;;;15.29;43.08
13974;BME280;7060;43.770;4.008;2023-05-16T05:40:54;100406.16;;;15.69;43.86
13974;BME280;7060;43.770;4.008;2023-05-16T05:43:22;100400.22;;;15.73;43.10
13974;BME280;7060;43.770;4.008;2023-05-16T05:45:51;100398.16;;;15.75;42.06
13974;BME280;7060;43.770;4.008;2023-05-16T05:48:19;100404.66;;;15.81;41.41
13974;BME280;7060;43.770;4.008;2023-05-16T05:50:48;100407.66;;;15.86;41.44
13974;BME280;7060;43.770;4.008;2023-05-16T05:53:17;100406.91;;;15.92;41.48
13974;BME280;7060;43.770;4.008;2023-05-16T05:55:45;100411.13;;;16.01;40.59
13974;BME280;7060;43.770;4.008;2023-05-16T05:58:15;100412.16;;;16.15;40.08
13974;BME280;7060;43.770;4.008;2023-05-16T06:00:44;100407.78;;;16.35;39.93
13974;BME280;7060;43.770;4.008;2023-05-16T06:03:12;100403.81;;;16.67;39.53
13974;BME280;7060;43.770;4.008;2023-05-16T06:05:41;100405.66;;;17.16;38.10
13974;BME280;7060;43.770;4.008;2023-05-16T06:08:10;100396.63;;;17.65;37.96
13974;BME280;7060;43.770;4.008;2023-05-16T06:10:39;100397.88;;;18.16;36.68
13974;BME280;7060;43.770;4.008;2023-05-16T06:13:07;100403.88;;;18.59;36.89
13974;BME280;7060;43.770;4.008;2023-05-16T06:15:37;100399.50;;;19.11;36.28
13974;BME280;7060;43.770;4.008;2023-05-16T06:18:06;100405.75;;;19.38;34.84
13974;BME280;7060;43.770;4.008;2023-05-16T06:20:34;100405.06;;;19.63;34.25
13974;BME280;7060;43.770;4.008;2023-05-16T06:23:03;100406.16;;;20.06;33.40
13974;BME280;7060;43.770;4.008;2023-05-16T06:25:32;100400.03;;;20.31;32.67
13974;BME280;7060;43.770;4.008;2023-05-16T06:28:01;100397.63;;;20.47;32.30
13974;BME280;7060;43.770;4.008;2023-05-16T06:30:29;100393.63;;;20.81;32.54
13974;BME280;7060;43.770;4.008;2023-05-16T06:32:59;100389.72;;;21.02;31.87
13974;BME280;7060;43.770;4.008;2023-05-16T06:35:28;100387.59;;;21.29;31.88
13974;BME280;7060;43.770;4.008;2023-05-16T06:37:56;100390.91;;;21.49;31.08
13974;BME280;7060;43.770;4.008;2023-05-16T06:40:25;100382.06;;;21.72;30.43
13974;BME280;7060;43.770;4.008;2023-05-16T06:42:53;100388.00;;;21.87;30.77
13974;BME280;7060;43.770;4.008;2023-05-16T06:45:24;100375.19;;;22.06;31.27
13974;BME280;7060;43.770;4.008;2023-05-16T06:47:54;100377.53;;;22.21;29.68
13974;BME280;7060;43.770;4.008;2023-05-16T06:50:24;100380.00;;;22.52;30.53
13974;BME280;7060;43.770;4.008;2023-05-16T06:52:53;100376.06;;;22.78;30.39
13974;BME280;7060;43.770;4.008;2023-05-16T06:55:21;100376.78;;;23.09;28.70
13974;BME280;7060;43.770;4.008;2023-05-16T06:57:51;100376.19;;;23.18;27.65
13974;BME280;7060;43.770;4.008;2023-05-16T07:00:20;100373.59;;;23.12;27.81
13974;BME280;7060;43.770;4.008;2023-05-16T07:02:49;100370.38;;;23.15;27.65
13974;BME280;7060;43.770;4.008;2023-05-16T07:05:18;100377.56;;;23.27;28.34
13974;BME280;7060;43.770;4.008;2023-05-16T07:07:49;100376.09;;;23.37;27.95
13974;BME280;7060;43.770;4.008;2023-05-16T07:10:17;100367.91;;;23.48;27.57
13974;BME280;7060;43.770;4.008;2023-05-16T07:12:46;100367.19;;;23.41;27.48
13974;BME280;7060;43.770;4.008;2023-05-16T07:15:14;100380.59;;;23.54;27.66
13974;BME280;7060;43.770;4.008;2023-05-16T07:17:43;100379.66;;;23.60;27.09
13974;BME280;7060;43.770;4.008;2023-05-16T07:20:13;100382.09;;;23.74;27.50
13974;BME280;7060;43.770;4.008;2023-05-16T07:22:42;100374.97;;;23.73;26.75
13974;BME280;7060;43.770;4.008;2023-05-16T07:25:13;100366.69;;;23.68;27.02
13974;BME280;7060;43.770;4.008;2023-05-16T07:27:42;100376.16;;;23.77;27.09
13974;BME280;7060;43.770;4.008;2023-05-16T07:30:12;100369.84;;;23.88;26.88
13974;BME280;7060;43.770;4.008;2023-05-16T07:32:41;100375.63;;;23.91;27.09
13974;BME280;7060;43.770;4.008;2023-05-16T07:35:09;100379.94;;;23.99;26.54
13974;BME280;7060;43.770;4.008;2023-05-16T07:37:39;100370.19;;;24.03;25.94
13974;BME280;7060;43.770;4.008;2023-05-16T07:40:10;100375.06;;;24.01;26.81
13974;BME280;7060;43.770;4.008;2023-05-16T07:42:40;100376.50;;;24.20;27.25
13974;BME280;7060;43.770;4.008;2023-05-16T07:45:09;100368.22;;;24.44;26.37
13974;BME280;7060;43.770;4.008;2023-05-16T07:47:37;100372.44;;;24.51;26.94
13974;BME280;7060;43.770;4.008;2023-05-16T07:50:06;100374.25;;;24.46;25.59
13974;BME280;7060;43.770;4.008;2023-05-16T07:52:35;100367.31;;;24.38;25.49
13974;BME280;7060;43.770;4.008;2023-05-16T07:55:04;100375.66;;;24.32;25.57
13974;BME280;7060;43.770;4.008;2023-05-16T07:57:33;100370.22;;;24.20;25.03
13974;BME280;7060;43.770;4.008;2023-05-16T08:00:04;100386.56;;;24.03;24.80
13974;BME280;7060;43.770;4.008;2023-05-16T08:02:37;100377.41;;;23.57;25.67
13974;BME280;7060;43.770;4.008;2023-05-16T08:05:07;100377.16;;;23.47;25.15
13974;BME280;7060;43.770;4.008;2023-05-16T08:07:36;100381.06;;;23.16;25.61
13974;BME280;7060;43.770;4.008;2023-05-16T08:10:05;100377.97;;;22.89;26.77
13974;BME280;7060;43.770;4.008;2023-05-16T08:12:35;100384.72;;;22.75;27.41
13974;BME280;7060;43.770;4.008;2023-05-16T08:15:06;100384.81;;;22.69;28.01
13974;BME280;7060;43.770;4.008;2023-05-16T08:17:35;100380.88;;;22.65;27.66
13974;BME280;7060;43.770;4.008;2023-05-16T08:20:05;100374.00;;;22.62;27.97
13974;BME280;7060;43.770;4.008;2023-05-16T08:22:34;100374.47;;;22.59;27.54
13974;BME280;7060;43.770;4.008;2023-05-16T08:25:03;100386.88;;;22.55;28.38
13974;BME280;7060;43.770;4.008;2023-05-16T08:27:31;100385.69;;;22.51;27.87
13974;BME280;7060;43.770;4.008;2023-05-16T08:29:59;100382.81;;;22.46;27.83
13974;BME280;7060;43.770;4.008;2023-05-16T08:32:30;100370.59;;;22.37;27.88
13974;BME280;7060;43.770;4.008;2023-05-16T08:34:59;100383.22;;;22.31;27.75
13974;BME280;7060;43.770;4.008;2023-05-16T08:37:28;100374.47;;;22.29;28.60
13974;BME280;7060;43.770;4.008;2023-05-16T08:39:57;100369.25;;;22.27;28.95
13974;BME280;7060;43.770;4.008;2023-05-16T08:42:28;100378.34;;;22.21;28.18
13974;BME280;7060;43.770;4.008;2023-05-16T08:44:56;100367.25;;;22.23;28.80
13974;BME280;7060;43.770;4.008;2023-05-16T08:47:26;100376.72;;;22.32;29.15
13974;BME280;7060;43.770;4.008;2023-05-16T08:49:59;100361.44;;;22.31;28.51
13974;BME280;7060;43.770;4.008;2023-05-16T08:52:30;100392.59;;;22.35;28.34
13974;BME280;7060;43.770;4.008;2023-05-16T08:55:01;100368.19;;;22.28;28.20
13974;BME280;7060;43.770;4.008;2023-05-16T08:57:38;100367.94;;;22.30;28.69
13974;BME280;7060;43.770;4.008;2023-05-16T09:00:07;100367.00;;;22.24;28.11
13974;BME280;7060;43.770;4.008;2023-05-16T09:02:39;100373.28;;;22.25;29.66
13974;BME280;7060;43.770;4.008;2023-05-16T09:05:11;100373.78;;;22.34;28.59
13974;BME280;7060;43.770;4.008;2023-05-16T09:07:40;100376.81;;;22.25;28.75
13974;BME280;7060;43.770;4.008;2023-05-16T09:10:09;100371.47;;;22.19;29.34
13974;BME280;7060;43.770;4.008;2023-05-16T09:12:39;100370.41;;;22.20;29.52
13974;BME280;7060;43.770;4.008;2023-05-16T09:15:08;100370.81;;;22.35;29.56
13974;BME280;7060;43.770;4.008;2023-05-16T09:17:41;100358.69;;;22.49;28.95
13974;BME280;7060;43.770;4.008;2023-05-16T09:20:13;100334.72;;;22.40;29.31
13974;BME280;7060;43.770;4.008;2023-05-16T09:22:50;100367.59;;;22.56;29.20
13974;BME280;7060;43.770;4.008;2023-05-16T09:25:20;100357.38;;;22.52;28.83
13974;BME280;7060;43.770;4.008;2023-05-16T09:27:59;100342.28;;;22.38;29.14
13974;BME280;7060;43.770;4.008;2023-05-16T09:30:31;100367.50;;;22.63;29.03
13974;BME280;7060;43.770;4.008;2023-05-16T09:33:01;100365.41;;;22.77;28.93
13974;BME280;7060;43.770;4.008;2023-05-16T09:35:31;100353.06;;;22.86;28.32
13974;BME280;7060;43.770;4.008;2023-05-16T09:38:02;100334.47;;;22.83;29.01
13974;BME280;7060;43.770;4.008;2023-05-16T09:40:30;100376.31;;;22.88;28.39
13974;BME280;7060;43.770;4.008;2023-05-16T09:43:03;100367.88;;;22.90;28.07
13974;BME280;7060;43.770;4.008;2023-05-16T09:45:32;100373.00;;;22.98;28.54
13974;BME280;7060;43.770;4.008;2023-05-16T09:48:03;100356.53;;;23.05;28.69
13974;BME280;7060;43.770;4.008;2023-05-16T09:50:36;100368.97;;;23.12;28.66
13974;BME280;7060;43.770;4.008;2023-05-16T09:53:05;100362.22;;;23.15;28.72
13974;BME280;7060;43.770;4.008;2023-05-16T09:55:33;100378.84;;;23.25;28.40
13974;BME280;7060;43.770;4.008;2023-05-16T09:58:02;100368.28;;;23.28;28.30
13974;BME280;7060;43.770;4.008;2023-05-16T10:00:32;100371.03;;;23.28;28.67
13974;BME280;7060;43.770;4.008;2023-05-16T10:03:01;100378.38;;;23.28;28.86
13974;BME280;7060;43.770;4.008;2023-05-16T10:05:32;100378.13;;;23.29;29.19
13974;BME280;7060;43.770;4.008;2023-05-16T10:08:02;100383.56;;;23.41;28.90
13974;BME280;7060;43.770;4.008;2023-05-16T10:10:35;100359.72;;;23.37;28.52
13974;BME280;7060;43.770;4.008;2023-05-16T10:13:06;100368.97;;;23.36;27.84
13974;BME280;7060;43.770;4.008;2023-05-16T10:15:36;100377.06;;;23.31;28.52
13974;BME280;7060;43.770;4.008;2023-05-16T10:18:06;100377.75;;;23.38;28.77
13974;BME280;7060;43.770;4.008;2023-05-16T10:20:40;100364.13;;;23.49;27.85
13974;BME280;7060;43.770;4.008;2023-05-16T10:23:16;100358.78;;;23.54;27.78
13974;BME280;7060;43.770;4.008;2023-05-16T10:25:45;100373.00;;;23.56;27.61
13974;BME280;7060;43.770;4.008;2023-05-16T10:28:14;100357.25;;;23.47;27.95
13974;BME280;7060;43.770;4.008;2023-05-16T10:30:44;100368.81;;;23.66;28.46
13974;BME280;7060;43.770;4.008;2023-05-16T10:33:15;100376.41;;;23.75;28.10
13974;BME280;7060;43.770;4.008;2023-05-16T10:35:45;100346.50;;;23.69;27.99
13974;BME280;7060;43.770;4.008;2023-05-16T10:38:17;100375.69;;;23.80;27.52
13974;BME280;7060;43.770;4.008;2023-05-16T10:40:46;100360.13;;;23.80;28.62
13974;BME280;7060;43.770;4.008;2023-05-16T10:43:22;100370.19;;;23.91;29.09
13974;BME280;7060;43.770;4.008;2023-05-16T10:45:56;100375.16;;;24.06;28.45
13974;BME280;7060;43.770;4.008;2023-05-16T10:48:29;100380.13;;;24.09;27.36
13974;BME280;7060;43.770;4.008;2023-05-16T10:50:58;100374.56;;;24.04;27.75
13974;BME280;7060;43.770;4.008;2023-05-16T10:53:32;100358.78;;;23.94;27.19
13974;BME280;7060;43.770;4.008;2023-05-16T10:56:08;100377.78;;;23.89;27.80
13974;BME280;7060;43.770;4.008;2023-05-16T10:58:42;100334.94;;;23.61;27.22
13974;BME280;7060;43.770;4.008;2023-05-16T11:01:19;100285.72;;;23.21;27.14
13974;BME280;7060;43.770;4.008;2023-05-16T11:04:08;100363.00;;;23.74;27.44
13974;BME280;7060;43.770;4.008;2023-05-16T11:06:51;100359.66;;;23.83;26.38
13974;BME280;7060;43.770;4.008;2023-05-16T11:09:23;100365.94;;;23.84;27.08
13974;BME280;7060;43.770;4.008;2023-05-16T11:11:55;100360.97;;;23.81;26.73
13974;BME280;7060;43.770;4.008;2023-05-16T11:14:25;100382.81;;;23.81;27.27
13974;BME280;7060;43.770;4.008;2023-05-16T11:17:00;100386.25;;;23.88;27.68
13974;BME280;7060;43.770;4.008;2023-05-16T11:19:33;100384.06;;;23.90;26.92
13974;BME280;7060;43.770;4.008;2023-05-16T11:22:23;100384.72;;;23.80;26.98
13974;BME280;7060;43.770;4.008;2023-05-16T11:24:56;100380.44;;;23.73;27.05
13974;BME280;7060;43.770;4.008;2023-05-16T11:27:27;100366.34;;;23.64;27.28
13974;BME280;7060;43.770;4.008;2023-05-16T11:29:59;100369.28;;;23.74;27.52
13974;BME280;7060;43.770;4.008;2023-05-16T11:32:32;100350.88;;;23.81;27.20
13974;BME280;7060;43.770;4.008;2023-05-16T11:35:01;100369.75;;;23.83;26.90
13974;BME280;7060;43.770;4.008;2023-05-16T11:37:31;100383.53;;;23.76;27.47
13974;BME280;7060;43.770;4.008;2023-05-16T11:40:02;100394.69;;;23.75;27.77
13974;BME280;7060;43.770;4.008;2023-05-16T11:42:34;100377.72;;;23.73;26.79
13974;BME280;7060;43.770;4.008;2023-05-16T11:45:05;100369.19;;;23.69;26.77
13974;BME280;7060;43.770;4.008;2023-05-16T11:47:35;100356.22;;;23.76;26.80
13974;BME280;7060;43.770;4.008;2023-05-16T11:50:05;100369.75;;;23.83;27.33
13974;BME280;7060;43.770;4.008;2023-05-16T11:52:36;100348.41;;;23.68;27.05
13974;BME280;7060;43.770;4.008;2023-05-16T11:55:07;100385.66;;;23.86;26.56
13974;BME280;7060;43.770;4.008;2023-05-16T11:57:37;100370.94;;;23.75;26.71
13974;BME280;7060;43.770;4.008;2023-05-16T12:00:13;100358.59;;;23.73;26.72
13974;BME280;7060;43.770;4.008;2023-05-16T12:02:43;100367.28;;;23.70;27.44
13974;BME280;7060;43.770;4.008;2023-05-16T12:05:12;100367.19;;;23.53;26.71
13974;BME280;7060;43.770;4.008;2023-05-16T12:07:42;100367.56;;;23.45;27.30
13974;BME280;7060;43.770;4.008;2023-05-16T12:10:14;100359.50;;;23.50;27.38
13974;BME280;7060;43.770;4.008;2023-05-16T12:12:45;100365.19;;;23.60;28.21
13974;BME280;7060;43.770;4.008;2023-05-16T12:15:15;100367.63;;;23.73;27.78
13974;BME280;7060;43.770;4.008;2023-05-16T12:17:44;100367.38;;;23.75;27.21
13974;BME280;7060;43.770;4.008;2023-05-16T12:20:14;100363.25;;;23.72;27.38
13974;BME280;7060;43.770;4.008;2023-05-16T12:22:44;100350.78;;;23.76;27.84
13974;BME280;7060;43.770;4.008;2023-05-16T12:25:25;100360.97;;;23.81;27.02
13974;BME280;7060;43.770;4.008;2023-05-16T12:27:57;100363.38;;;23.66;28.26
13974;BME280;7060;43.770;4.008;2023-05-16T12:30:27;100376.34;;;23.47;28.31
13974;BME280;7060;43.770;4.008;2023-05-16T12:32:57;100361.75;;;23.41;27.36
13974;BME280;7060;43.770;4.008;2023-05-16T12:35:29;100367.91;;;23.37;27.66
13974;BME280;7060;43.770;4.008;2023-05-16T12:37:59;100364.75;;;23.28;28.38
13974;BME280;7060;43.770;4.008;2023-05-16T12:40:32;100373.13;;;23.15;28.17
13974;BME280;7060;43.770;4.008;2023-05-16T12:43:04;100364.13;;;23.03;28.84
13974;BME280;7060;43.770;4.008;2023-05-16T12:45:34;100363.59;;;22.82;28.60
13974;BME280;7060;43.770;4.008;2023-05-16T12:48:11;100374.75;;;22.69;28.72
13974;BME280;7060;43.770;4.008;2023-05-16T12:50:40;100376.00;;;22.55;29.00
13974;BME280;7060;43.770;4.008;2023-05-16T12:53:11;100372.31;;;22.49;29.52
13974;BME280;7060;43.770;4.008;2023-05-16T12:55:42;100368.31;;;22.63;29.17
13974;BME280;7060;43.770;4.008;2023-05-16T12:58:12;100366.94;;;22.84;29.67
13974;BME280;7060;43.770;4.008;2023-05-16T13:00:42;100371.25;;;23.04;29.50
13974;BME280;7060;43.770;4.008;2023-05-16T13:03:10;100379.06;;;23.00;28.70
13974;BME280;7060;43.770;4.008;2023-05-16T13:05:39;100375.56;;;22.81;28.53
13974;BME280;7060;43.770;4.008;2023-05-16T13:08:08;100267.22;;;21.88;28.72
13974;BME280;7060;43.770;4.008;2023-05-16T13:10:36;100366.13;;;22.42;28.63
13974;BME280;7060;43.770;4.008;2023-05-16T13:13:06;100378.47;;;22.26;29.27
13974;BME280;7060;43.770;4.008;2023-05-16T13:15:36;100384.94;;;22.14;28.95